createdAt,value
2019-02-26T00:02:00.498Z,-2.16
2019-02-26T00:04:32.116Z,-2.04
2019-02-26T00:07:01.072Z,-2.03
2019-02-26T00:09:34.636Z,-2.01
2019-02-26T00:12:01.956Z,-1.87
2019-02-26T00:14:31.551Z,-1.97
2019-02-26T00:17:01.102Z,-2.00
2019-02-26T00:19:30.691Z,-2.01
2019-02-26T00:22:00.265Z,-2.05
2019-02-26T00:24:30.847Z,-2.09
2019-02-26T00:27:03.241Z,-2.11
2019-02-26T00:29:32.352Z,-2.15
2019-02-26T00:32:01.961Z,-2.22
2019-02-26T00:34:32.358Z,-2.21
2019-02-26T00:37:04.037Z,-2.25
2019-02-26T00:39:34.170Z,-2.25
2019-02-26T00:42:05.206Z,-2.22
2019-02-26T00:44:37.120Z,-2.20
2019-02-26T00:47:07.124Z,-2.22
2019-02-26T00:49:37.618Z,-2.22
2019-02-26T00:52:08.690Z,-2.23
2019-02-26T00:54:38.427Z,-2.23
2019-02-26T00:57:08.684Z,-2.27
2019-02-26T00:59:41.258Z,-2.29
2019-02-26T01:02:10.599Z,-2.32
2019-02-26T01:04:41.473Z,-2.39
2019-02-26T01:07:11.591Z,-2.41
2019-02-26T01:09:41.242Z,-2.48
2019-02-26T01:12:13.666Z,-2.57
2019-02-26T01:14:44.072Z,-2.66
2019-02-26T01:17:14.877Z,-2.71
2019-02-26T01:19:45.273Z,-2.71
2019-02-26T01:22:14.830Z,-2.71
2019-02-26T01:24:44.394Z,-2.71
2019-02-26T01:27:13.924Z,-2.70
2019-02-26T01:29:44.569Z,-2.74
2019-02-26T01:32:15.521Z,-2.72
2019-02-26T01:34:47.839Z,-2.71
2019-02-26T01:37:17.366Z,-2.71
2019-02-26T01:39:47.827Z,-2.76
2019-02-26T01:42:22.285Z,-2.74
2019-02-26T01:44:49.485Z,-2.71
2019-02-26T01:47:19.604Z,-2.69
2019-02-26T01:49:51.131Z,-2.70
2019-02-26T01:52:20.767Z,-2.74
2019-02-26T01:54:51.375Z,-3.01
2019-02-26T01:57:21.585Z,-2.71
2019-02-26T01:59:51.111Z,-2.69
2019-02-26T02:02:22.728Z,-2.60
2019-02-26T02:04:51.970Z,-2.37
2019-02-26T02:07:23.734Z,-2.16
2019-02-26T02:09:53.693Z,-1.98
2019-02-26T02:12:27.423Z,-1.94
2019-02-26T02:14:55.466Z,-1.72
2019-02-26T02:17:24.995Z,-1.80
2019-02-26T02:19:54.576Z,-1.82
2019-02-26T02:22:24.095Z,-1.75
2019-02-26T02:24:55.604Z,-1.69
2019-02-26T02:27:27.486Z,-1.65
2019-02-26T02:29:57.796Z,-1.97
2019-02-26T02:32:29.564Z,-1.70
2019-02-26T02:35:03.450Z,-1.59
2019-02-26T02:37:31.912Z,-1.53
2019-02-26T02:40:01.240Z,-1.58
2019-02-26T02:42:30.780Z,-1.64
2019-02-26T02:45:00.325Z,-1.73
2019-02-26T02:47:31.615Z,-1.82
2019-02-26T02:50:03.135Z,-1.71
2019-02-26T02:52:35.125Z,-1.73
2019-02-26T02:55:04.556Z,-1.78
2019-02-26T02:57:35.075Z,-1.81
2019-02-26T03:00:06.273Z,-1.94
2019-02-26T03:02:40.536Z,-1.96
2019-02-26T03:05:08.390Z,-2.02
2019-02-26T03:07:38.023Z,-2.05
2019-02-26T03:10:09.552Z,-2.16
2019-02-26T03:12:39.539Z,-2.24
2019-02-26T03:15:10.780Z,-2.16
2019-02-26T03:17:40.326Z,-2.16
2019-02-26T03:20:10.542Z,-2.18
2019-02-26T03:22:43.190Z,-2.21
2019-02-26T03:25:14.865Z,-2.17
2019-02-26T03:27:43.945Z,-2.21
2019-02-26T03:30:26.086Z,-2.25
2019-02-26T03:32:55.943Z,-2.30
2019-02-26T03:35:20.219Z,-2.37
2019-02-26T03:37:54.087Z,-2.43
2019-02-26T03:40:24.110Z,-2.40
2019-02-26T03:42:52.970Z,-2.30
2019-02-26T03:45:24.717Z,-2.15
2019-02-26T03:47:55.446Z,-2.10
2019-02-26T03:50:27.125Z,-2.05
2019-02-26T03:52:56.497Z,-2.07
2019-02-26T03:55:26.052Z,-2.04
2019-02-26T03:57:57.138Z,-2.01
2019-02-26T04:00:26.922Z,-1.96
2019-02-26T04:02:56.473Z,-1.94
2019-02-26T04:05:26.029Z,-1.79
2019-02-26T04:07:58.882Z,-1.82
2019-02-26T04:10:26.856Z,-1.84
2019-02-26T04:12:58.189Z,-1.79
2019-02-26T04:15:30.226Z,-1.75
2019-02-26T04:17:59.127Z,-1.68
2019-02-26T04:20:28.758Z,-1.65
2019-02-26T04:22:58.339Z,-1.59
2019-02-26T04:25:42.394Z,-1.52
2019-02-26T04:28:32.957Z,-1.53
2019-02-26T04:31:34.178Z,-1.57
2019-02-26T04:34:17.762Z,-1.60
2019-02-26T04:37:19.329Z,-1.61
2019-02-26T04:40:11.908Z,-1.62
2019-02-26T04:43:14.413Z,-1.60
2019-02-26T04:46:10.355Z,-1.52
2019-02-26T04:48:39.715Z,-1.56
2019-02-26T04:51:09.311Z,-1.57
2019-02-26T04:53:38.890Z,-1.47
2019-02-26T04:56:12.825Z,-1.48
2019-02-26T04:58:42.428Z,-1.55
2019-02-26T05:01:12.962Z,-1.60
2019-02-26T05:03:42.626Z,-1.56
2019-02-26T05:06:12.291Z,-1.56
2019-02-26T05:08:42.852Z,-1.53
2019-02-26T05:11:17.425Z,-1.52
2019-02-26T05:13:43.779Z,-1.42
2019-02-26T05:16:13.466Z,-1.36
2019-02-26T05:18:44.419Z,-1.25
2019-02-26T05:21:14.302Z,-1.08
2019-02-26T05:23:43.993Z,-0.85
2019-02-26T05:26:18.032Z,-0.64
2019-02-26T05:28:48.968Z,-0.35
2019-02-26T05:31:18.052Z,-0.15
2019-02-26T05:33:49.676Z,-0.10
2019-02-26T05:36:18.952Z,-0.05
2019-02-26T05:38:49.289Z,0.07
2019-02-26T05:41:19.816Z,0.27
2019-02-26T05:43:52.178Z,0.63
2019-02-26T05:46:22.160Z,1.38
2019-02-26T05:48:52.024Z,2.05
2019-02-26T05:51:21.570Z,2.44
2019-02-26T05:53:51.117Z,2.63
2019-02-26T05:56:22.773Z,2.78
2019-02-26T05:58:52.094Z,2.95
2019-02-26T06:01:24.305Z,3.43
2019-02-26T06:03:52.924Z,3.41
2019-02-26T06:06:22.507Z,3.03
2019-02-26T06:08:54.382Z,2.73
2019-02-26T06:11:23.354Z,2.55
2019-02-26T06:13:52.886Z,2.58
2019-02-26T06:16:24.240Z,2.89
2019-02-26T06:18:54.481Z,3.18
2019-02-26T06:21:25.926Z,3.51
2019-02-26T06:23:55.825Z,3.84
2019-02-26T06:26:27.964Z,4.11
2019-02-26T06:28:56.700Z,4.46
2019-02-26T06:31:26.242Z,4.73
2019-02-26T06:33:55.786Z,4.84
2019-02-26T06:36:26.421Z,4.93
2019-02-26T06:38:58.773Z,4.95
2019-02-26T06:41:27.941Z,5.06
2019-02-26T06:43:57.476Z,5.12
2019-02-26T06:46:28.956Z,4.85
2019-02-26T06:48:58.386Z,4.87
2019-02-26T06:51:28.793Z,4.81
2019-02-26T06:54:01.066Z,4.57
2019-02-26T06:56:34.506Z,4.55
2019-02-26T06:59:09.895Z,4.75
2019-02-26T07:01:42.028Z,4.96
2019-02-26T07:04:12.872Z,5.23
2019-02-26T07:06:42.666Z,5.44
2019-02-26T07:09:15.243Z,5.31
2019-02-26T07:11:43.623Z,5.43
2019-02-26T07:14:13.190Z,5.67
2019-02-26T07:16:42.758Z,5.94
2019-02-26T07:19:14.128Z,6.45
2019-02-26T07:21:45.589Z,7.00
2019-02-26T07:24:15.868Z,7.32
2019-02-26T07:26:48.206Z,7.61
2019-02-26T07:29:17.741Z,7.50
2019-02-26T07:31:49.435Z,7.50
2019-02-26T07:34:20.514Z,7.20
2019-02-26T07:36:52.317Z,7.20
2019-02-26T07:39:22.797Z,7.67
2019-02-26T07:41:54.380Z,7.61
2019-02-26T07:44:25.947Z,7.48
2019-02-26T07:46:55.162Z,7.65
2019-02-26T07:49:24.694Z,7.80
2019-02-26T07:51:56.096Z,7.65
2019-02-26T07:54:25.642Z,7.48
2019-02-26T07:56:57.431Z,7.62
2019-02-26T07:59:27.851Z,7.62
2019-02-26T08:01:57.605Z,7.60
2019-02-26T08:04:27.142Z,7.32
2019-02-26T08:06:59.096Z,7.18
2019-02-26T08:09:28.048Z,7.00
2019-02-26T08:11:57.598Z,6.93
2019-02-26T08:14:27.137Z,7.01
2019-02-26T08:16:58.657Z,7.21
2019-02-26T08:19:29.775Z,7.33
2019-02-26T08:21:59.504Z,7.48
2019-02-26T08:24:29.164Z,7.37
2019-02-26T08:26:58.702Z,7.35
2019-02-26T08:29:30.807Z,7.46
2019-02-26T08:32:01.861Z,7.67
2019-02-26T08:34:30.788Z,7.84
2019-02-26T08:37:00.313Z,8.12
2019-02-26T08:39:29.864Z,8.44
2019-02-26T08:42:04.252Z,8.67
2019-02-26T08:44:33.788Z,8.76
2019-02-26T08:47:06.446Z,8.70
2019-02-26T08:49:35.325Z,8.69
2019-02-26T08:52:05.976Z,8.82
2019-02-26T08:54:35.905Z,8.94
2019-02-26T08:57:05.501Z,9.07
2019-02-26T08:59:35.122Z,9.29
2019-02-26T09:02:04.692Z,9.31
2019-02-26T09:04:35.162Z,9.60
2019-02-26T09:07:05.710Z,9.54
2019-02-26T09:09:35.464Z,9.68
2019-02-26T09:12:05.107Z,9.63
2019-02-26T09:14:37.479Z,9.93
2019-02-26T09:17:06.010Z,9.78
2019-02-26T09:19:37.526Z,9.83
2019-02-26T09:22:09.631Z,10.12
2019-02-26T09:24:38.392Z,10.26
2019-02-26T09:27:07.948Z,10.18
2019-02-26T09:29:39.699Z,10.16
2019-02-26T09:32:09.908Z,9.99
2019-02-26T09:34:40.429Z,10.04
2019-02-26T09:37:10.119Z,10.06
2019-02-26T09:39:39.877Z,10.43
2019-02-26T09:42:09.427Z,10.81
2019-02-26T09:44:38.998Z,11.31
2019-02-26T09:47:08.533Z,11.57
2019-02-26T09:49:38.129Z,11.74
2019-02-26T09:52:11.093Z,12.12
2019-02-26T09:54:42.801Z,11.93
2019-02-26T09:57:15.544Z,12.32
2019-02-26T09:59:43.249Z,12.61
2019-02-26T10:02:12.791Z,12.43
2019-02-26T10:04:43.133Z,12.61
2019-02-26T10:07:14.396Z,12.38
2019-02-26T10:09:47.913Z,12.02
2019-02-26T10:12:15.828Z,11.67
2019-02-26T10:14:45.854Z,10.97
2019-02-26T10:17:17.374Z,10.81
2019-02-26T10:19:46.755Z,10.64
2019-02-26T10:22:16.400Z,10.75
2019-02-26T10:24:46.070Z,10.39
2019-02-26T10:27:16.370Z,10.56
2019-02-26T10:29:47.543Z,10.63
2019-02-26T10:32:20.571Z,10.88
2019-02-26T10:34:51.761Z,10.92
2019-02-26T10:37:21.456Z,11.05
2019-02-26T10:39:52.224Z,10.61
2019-02-26T10:42:22.544Z,10.67
2019-02-26T10:44:52.199Z,10.44
2019-02-26T10:47:22.820Z,10.15
2019-02-26T10:49:53.806Z,10.30
2019-02-26T10:52:26.301Z,11.03
2019-02-26T10:54:56.154Z,12.04
2019-02-26T10:57:26.990Z,12.95
2019-02-26T10:59:59.622Z,12.11
2019-02-26T11:02:29.054Z,12.78
2019-02-26T11:04:58.677Z,12.54
2019-02-26T11:07:28.754Z,13.03
2019-02-26T11:09:59.565Z,13.45
2019-02-26T11:12:33.411Z,12.85
2019-02-26T11:15:01.629Z,12.64
2019-02-26T11:17:31.797Z,12.18
2019-02-26T11:20:04.347Z,12.15
2019-02-26T11:22:32.665Z,12.22
2019-02-26T11:25:02.224Z,12.51
2019-02-26T11:27:31.772Z,12.58
2019-02-26T11:30:02.083Z,12.52
2019-02-26T11:32:37.255Z,12.10
2019-02-26T11:35:03.998Z,11.43
2019-02-26T11:37:33.543Z,11.31
2019-02-26T11:40:05.351Z,11.68
2019-02-26T11:42:34.760Z,12.01
2019-02-26T11:45:06.637Z,12.14
2019-02-26T11:47:37.260Z,11.89
2019-02-26T11:50:09.253Z,11.82
2019-02-26T11:52:38.496Z,12.86
2019-02-26T11:55:10.883Z,13.16
2019-02-26T11:57:40.389Z,12.93
2019-02-26T12:00:24.213Z,12.32
2019-02-26T12:02:46.554Z,11.98
2019-02-26T12:05:16.154Z,12.15
2019-02-26T12:07:46.222Z,12.36
2019-02-26T12:10:16.975Z,12.15
2019-02-26T12:12:48.510Z,11.86
2019-02-26T12:15:18.290Z,11.53
2019-02-26T12:17:51.809Z,11.31
2019-02-26T12:20:22.062Z,11.15
2019-02-26T12:22:55.220Z,10.94
2019-02-26T12:25:23.794Z,11.17
2019-02-26T12:27:53.348Z,10.89
2019-02-26T12:30:22.939Z,10.70
2019-02-26T12:32:54.967Z,10.26
2019-02-26T12:35:23.903Z,10.06
2019-02-26T12:37:55.839Z,9.90
2019-02-26T12:40:25.467Z,10.00
2019-02-26T12:42:55.202Z,9.71
2019-02-26T12:45:26.180Z,9.90
2019-02-26T12:47:56.005Z,9.64
2019-02-26T12:50:27.272Z,9.75
2019-02-26T12:52:57.237Z,9.46
2019-02-26T12:55:29.624Z,9.33
2019-02-26T12:57:59.408Z,9.38
2019-02-26T13:00:29.138Z,9.46
2019-02-26T13:02:58.687Z,9.37
2019-02-26T13:05:28.273Z,9.40
2019-02-26T13:07:57.855Z,9.49
2019-02-26T13:10:27.558Z,9.48
2019-02-26T13:13:00.076Z,9.70
2019-02-26T13:15:28.645Z,9.83
2019-02-26T13:17:58.237Z,9.85
2019-02-26T13:20:27.821Z,9.94
2019-02-26T13:23:16.470Z,9.63
2019-02-26T13:25:28.595Z,9.65
2019-02-26T13:27:58.318Z,9.83
2019-02-26T13:30:28.052Z,9.94
2019-02-26T13:33:00.912Z,10.15
2019-02-26T13:35:28.993Z,10.24
2019-02-26T13:37:58.730Z,10.34
2019-02-26T13:40:28.241Z,10.43
2019-02-26T13:45:29.059Z,10.02
2019-02-26T13:48:01.267Z,9.96
2019-02-26T13:50:29.928Z,9.83
2019-02-26T13:52:59.460Z,9.87
2019-02-26T13:55:28.990Z,9.75
2019-02-26T13:57:58.636Z,9.58
2019-02-26T14:00:28.244Z,9.46
2019-02-26T14:02:57.862Z,9.35
2019-02-26T14:05:27.393Z,9.29
2019-02-26T14:07:56.999Z,9.20
2019-02-26T14:10:26.595Z,9.01
2019-02-26T14:12:56.130Z,9.00
2019-02-26T14:15:25.765Z,8.99
2019-02-26T14:17:55.488Z,8.91
2019-02-26T14:20:25.031Z,8.82
2019-02-26T14:22:54.552Z,8.86
2019-02-26T14:25:24.090Z,8.79
2019-02-26T14:27:53.622Z,8.90
2019-02-26T14:30:23.191Z,8.99
2019-02-26T14:32:52.723Z,8.93
2019-02-26T14:35:22.259Z,9.00
2019-02-26T14:37:51.779Z,8.99
2019-02-26T14:40:21.531Z,8.91
2019-02-26T14:42:51.081Z,8.83
2019-02-26T14:45:20.665Z,8.78
2019-02-26T14:47:50.191Z,8.74
2019-02-26T14:50:19.828Z,8.71
2019-02-26T14:52:49.488Z,8.57
2019-02-26T14:55:19.029Z,8.49
2019-02-26T14:57:48.677Z,8.44
2019-02-26T15:00:21.018Z,8.43
2019-02-26T15:02:50.946Z,8.38
2019-02-26T15:05:20.512Z,8.28
2019-02-26T15:07:50.122Z,8.19
2019-02-26T15:10:20.575Z,8.15
2019-02-26T15:12:50.331Z,8.04
2019-02-26T15:15:20.017Z,7.98
2019-02-26T15:17:49.614Z,7.91
2019-02-26T15:20:19.193Z,7.89
2019-02-26T15:22:48.944Z,7.87
2019-02-26T15:25:20.763Z,7.78
2019-02-26T15:27:50.288Z,7.71
2019-02-26T15:30:19.912Z,7.70
2019-02-26T15:32:49.449Z,7.70
2019-02-26T15:35:19.000Z,7.68
2019-02-26T15:37:48.532Z,7.62
2019-02-26T15:40:18.089Z,7.59
2019-02-26T15:42:47.681Z,7.57
2019-02-26T15:45:19.622Z,7.49
2019-02-26T15:47:49.502Z,7.45
2019-02-26T15:50:19.094Z,7.43
2019-02-26T15:52:52.609Z,7.37
2019-02-26T15:55:20.464Z,7.31
2019-02-26T15:57:50.674Z,7.32
2019-02-26T16:00:21.205Z,7.25
2019-02-26T16:02:51.651Z,7.25
2019-02-26T16:05:22.625Z,7.27
2019-02-26T16:07:52.605Z,7.28
2019-02-26T16:10:22.877Z,7.25
2019-02-26T16:12:52.589Z,7.27
2019-02-26T16:15:22.132Z,7.26
2019-02-26T16:17:51.668Z,7.26
2019-02-26T16:20:21.220Z,7.28
2019-02-26T16:22:50.800Z,7.28
2019-02-26T16:25:20.501Z,7.20
2019-02-26T16:27:51.706Z,7.15
2019-02-26T16:30:21.692Z,7.15
2019-02-26T16:32:51.233Z,7.17
2019-02-26T16:35:24.719Z,7.14
2019-02-26T16:37:52.125Z,7.13
2019-02-26T16:40:22.230Z,7.06
2019-02-26T16:42:51.905Z,7.02
2019-02-26T16:45:22.396Z,7.03
2019-02-26T16:47:51.935Z,6.96
2019-02-26T16:50:22.878Z,6.90
2019-02-26T16:52:52.421Z,6.85
2019-02-26T16:55:22.189Z,6.82
2019-02-26T16:57:51.736Z,6.79
2019-02-26T17:00:22.488Z,6.73
2019-02-26T17:02:52.035Z,6.71
2019-02-26T17:05:21.698Z,6.68
2019-02-26T17:07:51.265Z,6.63
2019-02-26T17:10:20.862Z,6.61
2019-02-26T17:12:53.255Z,6.57
2019-02-26T17:15:26.870Z,6.53
2019-02-26T17:17:55.783Z,6.50
2019-02-26T17:20:26.419Z,6.45
2019-02-26T17:22:56.133Z,6.40
2019-02-26T17:25:28.508Z,6.35
2019-02-26T17:27:57.153Z,6.29
2019-02-26T17:30:26.689Z,6.25
2019-02-26T17:32:56.276Z,6.24
2019-02-26T17:35:27.776Z,6.25
2019-02-26T17:37:57.315Z,6.17
2019-02-26T17:40:26.871Z,6.19
2019-02-26T17:42:56.500Z,6.17
2019-02-26T17:45:26.136Z,6.13
2019-02-26T17:47:56.841Z,6.13
2019-02-26T17:50:29.635Z,6.12
2019-02-26T17:52:59.318Z,6.04
2019-02-26T17:55:29.474Z,6.04
2019-02-26T17:58:00.675Z,6.07
2019-02-26T18:00:32.111Z,6.06
2019-02-26T18:03:06.469Z,6.04
2019-02-26T18:05:33.097Z,6.03
2019-02-26T18:08:02.658Z,5.97
2019-02-26T18:10:32.176Z,5.96
2019-02-26T18:13:01.728Z,5.98
2019-02-26T18:15:31.367Z,5.93
2019-02-26T18:18:01.022Z,5.92
2019-02-26T18:20:30.590Z,6.00
2019-02-26T18:23:00.847Z,5.93
2019-02-26T18:25:30.545Z,5.94
2019-02-26T18:28:00.197Z,5.94
2019-02-26T18:30:29.877Z,5.92
2019-02-26T18:32:59.548Z,5.90
2019-02-26T18:35:29.185Z,5.91
2019-02-26T18:38:01.755Z,5.90
2019-02-26T18:40:31.362Z,5.86
2019-02-26T18:43:01.154Z,5.91
2019-02-26T18:45:30.718Z,5.89
2019-02-26T18:48:00.258Z,5.84
2019-02-26T18:50:29.801Z,5.84
2019-02-26T18:52:59.427Z,5.79
2019-02-26T18:55:32.288Z,5.78
2019-02-26T18:58:00.272Z,5.80
2019-02-26T19:00:29.829Z,5.76
2019-02-26T19:02:59.495Z,5.80
2019-02-26T19:05:29.024Z,5.79
2019-02-26T19:07:58.579Z,5.79
2019-02-26T19:10:28.364Z,5.79
2019-02-26T19:12:58.043Z,5.75
2019-02-26T19:15:27.636Z,5.72
2019-02-26T19:18:02.651Z,5.72
2019-02-26T19:20:31.703Z,5.72
2019-02-26T19:23:02.132Z,5.68
2019-02-26T19:25:31.832Z,5.67
2019-02-26T19:28:01.433Z,5.63
2019-02-26T19:30:31.030Z,5.65
2019-02-26T19:33:00.814Z,5.63
2019-02-26T19:35:35.054Z,5.59
2019-02-26T19:38:01.764Z,5.61
2019-02-26T19:40:38.700Z,5.57
2019-02-26T19:43:07.781Z,5.56
2019-02-26T19:45:37.367Z,5.56
2019-02-26T19:48:07.286Z,5.60
2019-02-26T19:50:36.925Z,5.63
2019-02-26T19:53:06.498Z,5.62
2019-02-26T19:55:37.042Z,5.58
2019-02-26T19:58:07.148Z,5.64
2019-02-26T20:00:36.780Z,5.60
2019-02-26T20:03:06.483Z,5.62
2019-02-26T20:05:36.033Z,5.60
2019-02-26T20:08:06.077Z,5.60
2019-02-26T20:10:35.773Z,5.61
2019-02-26T20:13:05.409Z,5.67
2019-02-26T20:15:34.991Z,5.61
2019-02-26T20:18:04.560Z,5.63
2019-02-26T20:20:40.536Z,5.64
2019-02-26T20:23:06.242Z,5.63
2019-02-26T20:25:36.002Z,5.64
2019-02-26T20:28:05.929Z,5.65
2019-02-26T20:30:35.740Z,5.65
2019-02-26T20:33:05.285Z,5.68
2019-02-26T20:35:34.839Z,5.65
2019-02-26T20:38:04.485Z,5.67
2019-02-26T20:40:34.146Z,5.70
2019-02-26T20:43:05.371Z,5.69
2019-02-26T20:45:34.998Z,5.68
2019-02-26T20:48:04.920Z,5.67
2019-02-26T20:50:34.513Z,5.65
2019-02-26T20:53:05.930Z,5.60
2019-02-26T20:55:35.468Z,5.60
2019-02-26T20:58:05.264Z,5.64
2019-02-26T21:00:34.835Z,5.64
2019-02-26T21:03:04.397Z,5.68
2019-02-26T21:05:34.644Z,5.70
2019-02-26T21:08:04.334Z,5.68
2019-02-26T21:10:33.865Z,5.66
2019-02-26T21:13:03.442Z,5.67
2019-02-26T21:15:34.716Z,5.68
2019-02-26T21:18:05.532Z,5.65
2019-02-26T21:20:35.100Z,5.67
2019-02-26T21:23:04.685Z,5.66
2019-02-26T21:25:34.288Z,5.63
2019-02-26T21:28:03.800Z,5.60
2019-02-26T21:30:33.358Z,5.61
2019-02-26T21:33:02.988Z,5.58
2019-02-26T21:35:32.599Z,5.58
2019-02-26T21:38:05.697Z,5.61
2019-02-26T21:40:33.472Z,5.63
2019-02-26T21:43:03.035Z,5.58
2019-02-26T21:45:32.657Z,5.50
2019-02-26T21:48:03.263Z,5.51
2019-02-26T21:50:32.972Z,5.54
2019-02-26T21:53:02.531Z,5.56
2019-02-26T21:55:40.525Z,5.56
2019-02-26T21:58:03.452Z,5.55
2019-02-26T22:00:33.101Z,5.53
2019-02-26T22:03:02.658Z,5.49
2019-02-26T22:05:32.215Z,5.44
2019-02-26T22:08:01.776Z,5.40
2019-02-26T22:10:31.312Z,5.24
2019-02-26T22:13:00.962Z,5.17
2019-02-26T22:15:30.737Z,5.17
2019-02-26T22:18:00.305Z,5.13
2019-02-26T22:20:36.327Z,5.07
2019-02-26T22:23:01.222Z,5.08
2019-02-26T22:25:30.877Z,5.06
2019-02-26T22:28:00.416Z,5.02
2019-02-26T22:30:30.049Z,4.95
2019-02-26T22:32:59.589Z,4.89
2019-02-26T22:35:29.249Z,4.78
2019-02-26T22:37:58.919Z,4.69
2019-02-26T22:40:29.231Z,4.57
2019-02-26T22:42:59.301Z,4.51
2019-02-26T22:45:28.868Z,4.49
2019-02-26T22:47:58.413Z,4.40
2019-02-26T22:50:27.978Z,4.38
2019-02-26T22:52:57.617Z,4.35
2019-02-26T22:55:27.285Z,4.33
2019-02-26T22:57:56.870Z,4.28
2019-02-26T23:00:55.594Z,4.23
2019-02-26T23:03:25.326Z,4.16
2019-02-26T23:05:58.772Z,4.08
2019-02-26T23:08:26.235Z,4.02
2019-02-26T23:10:57.492Z,3.98
2019-02-26T23:13:31.541Z,3.89
2019-02-26T23:15:58.971Z,3.78
2019-02-26T23:18:30.980Z,3.70
2019-02-26T23:20:59.792Z,3.66
2019-02-26T23:23:29.360Z,3.67
2019-02-26T23:25:58.983Z,3.72
2019-02-26T23:28:28.524Z,3.81
2019-02-26T23:30:59.886Z,3.83
2019-02-26T23:33:29.572Z,3.61
2019-02-26T23:35:59.063Z,3.88
2019-02-26T23:38:28.651Z,3.96
2019-02-26T23:41:00.310Z,4.06
2019-02-26T23:43:29.610Z,4.14
2019-02-26T23:45:59.166Z,4.13
2019-02-26T23:48:28.711Z,4.09
2019-02-26T23:50:58.393Z,3.99
2019-02-26T23:53:27.937Z,3.88
2019-02-26T23:55:57.538Z,3.83
2019-02-26T23:58:30.702Z,3.80
